sensor_id;sensor_type;location;lat;lon;timestamp;P1;durP1;ratioP1;P2;durP2;ratioP2
84050;SDS011;74137;50.136;19.040;2024-02-21T00:03:55;20.70;;;9.20;;
84050;SDS011;74137;50.136;19.040;2024-02-21T00:22:11;17.00;;;7.40;;
84050;SDS011;74137;50.136;19.040;2024-02-21T01:13:37;18.40;;;7.60;;
84050;SDS011;74137;50.136;19.040;2024-02-21T02:51:04;20.00;;;9.10;;
84050;SDS011;74137;50.136;19.040;2024-02-21T02:55:17;27.30;;;10.70;;
84050;SDS011;74137;50.136;19.040;2024-02-21T02:59:25;22.60;;;9.80;;
84050;SDS011;74137;50.136;19.040;2024-02-21T03:27:23;16.40;;;7.90;;
84050;SDS011;74137;50.136;19.040;2024-02-21T04:08:59;20.30;;;10.00;;
84050;SDS011;74137;50.136;19.040;2024-02-21T07:09:10;11.60;;;5.30;;
84050;SDS011;74137;50.136;19.040;2024-02-21T09:21:24;17.50;;;6.40;;
84050;SDS011;74137;50.136;19.040;2024-02-21T09:36:16;10.40;;;4.70;;
84050;SDS011;74137;50.136;19.040;2024-02-21T09:48:37;11.80;;;5.00;;
84050;SDS011;74137;50.136;19.040;2024-02-21T09:52:46;12.80;;;5.40;;
84050;SDS011;74137;50.136;19.040;2024-02-21T09:56:26;9.90;;;4.30;;
84050;SDS011;74137;50.136;19.040;2024-02-21T10:00:05;12.50;;;5.20;;
84050;SDS011;74137;50.136;19.040;2024-02-21T10:04:07;10.00;;;4.50;;
84050;SDS011;74137;50.136;19.040;2024-02-21T10:08:13;12.50;;;5.20;;
84050;SDS011;74137;50.136;19.040;2024-02-21T10:12:09;13.40;;;4.90;;
84050;SDS011;74137;50.136;19.040;2024-02-21T10:20:08;12.30;;;4.50;;
84050;SDS011;74137;50.136;19.040;2024-02-21T10:24:25;12.90;;;5.20;;
84050;SDS011;74137;50.136;19.040;2024-02-21T10:28:15;12.10;;;5.80;;
84050;SDS011;74137;50.136;19.040;2024-02-21T10:32:27;11.90;;;4.70;;
84050;SDS011;74137;50.136;19.040;2024-02-21T10:36:35;11.40;;;4.60;;
84050;SDS011;74137;50.136;19.040;2024-02-21T10:40:42;11.20;;;4.80;;
84050;SDS011;74137;50.136;19.040;2024-02-21T10:44:51;10.70;;;4.10;;
84050;SDS011;74137;50.136;19.040;2024-02-21T10:49:04;11.70;;;4.40;;
84050;SDS011;74137;50.136;19.040;2024-02-21T10:52:41;10.60;;;4.60;;
84050;SDS011;74137;50.136;19.040;2024-02-21T10:56:28;9.60;;;3.50;;
84050;SDS011;74137;50.136;19.040;2024-02-21T11:00:31;10.90;;;3.70;;
84050;SDS011;74137;50.136;19.040;2024-02-21T11:04:42;11.90;;;4.20;;
84050;SDS011;74137;50.136;19.040;2024-02-21T11:09:07;14.90;;;5.80;;
84050;SDS011;74137;50.136;19.040;2024-02-21T11:13:16;14.40;;;5.40;;
84050;SDS011;74137;50.136;19.040;2024-02-21T11:17:24;9.50;;;4.00;;
84050;SDS011;74137;50.136;19.040;2024-02-21T11:21:53;13.00;;;5.50;;
84050;SDS011;74137;50.136;19.040;2024-02-21T11:26:04;13.00;;;4.70;;
84050;SDS011;74137;50.136;19.040;2024-02-21T11:30:13;11.20;;;4.10;;
84050;SDS011;74137;50.136;19.040;2024-02-21T11:34:06;7.80;;;3.50;;
84050;SDS011;74137;50.136;19.040;2024-02-21T11:38:13;9.90;;;3.60;;
84050;SDS011;74137;50.136;19.040;2024-02-21T11:42:11;9.80;;;3.60;;
84050;SDS011;74137;50.136;19.040;2024-02-21T11:46:20;12.90;;;4.10;;
84050;SDS011;74137;50.136;19.040;2024-02-21T11:50:31;12.60;;;4.60;;
84050;SDS011;74137;50.136;19.040;2024-02-21T11:54:18;12.60;;;4.10;;
84050;SDS011;74137;50.136;19.040;2024-02-21T11:58:14;10.80;;;4.10;;
84050;SDS011;74137;50.136;19.040;2024-02-21T12:02:00;12.70;;;4.20;;
84050;SDS011;74137;50.136;19.040;2024-02-21T12:05:47;9.80;;;3.80;;
84050;SDS011;74137;50.136;19.040;2024-02-21T12:12:32;9.00;;;3.30;;
84050;SDS011;74137;50.136;19.040;2024-02-21T12:16:15;12.30;;;4.30;;
84050;SDS011;74137;50.136;19.040;2024-02-21T12:20:22;12.40;;;4.20;;
84050;SDS011;74137;50.136;19.040;2024-02-21T12:24:31;11.00;;;4.50;;
84050;SDS011;74137;50.136;19.040;2024-02-21T12:28:18;12.40;;;4.60;;
84050;SDS011;74137;50.136;19.040;2024-02-21T12:32:16;12.60;;;3.70;;
84050;SDS011;74137;50.136;19.040;2024-02-21T12:39:46;12.20;;;4.80;;
84050;SDS011;74137;50.136;19.040;2024-02-21T12:55:50;14.40;;;3.80;;
84050;SDS011;74137;50.136;19.040;2024-02-21T13:04:35;11.70;;;4.30;;
84050;SDS011;74137;50.136;19.040;2024-02-21T13:08:11;10.10;;;3.40;;
84050;SDS011;74137;50.136;19.040;2024-02-21T13:15:39;11.40;;;3.70;;
84050;SDS011;74137;50.136;19.040;2024-02-21T13:42:02;11.70;;;4.10;;
84050;SDS011;74137;50.136;19.040;2024-02-21T13:45:45;14.00;;;4.70;;
84050;SDS011;74137;50.136;19.040;2024-02-21T13:49:41;12.40;;;4.80;;
84050;SDS011;74137;50.136;19.040;2024-02-21T14:03:16;11.20;;;4.40;;
84050;SDS011;74137;50.136;19.040;2024-02-21T15:17:43;11.50;;;4.60;;
84050;SDS011;74137;50.136;19.040;2024-02-21T17:15:42;30.70;;;15.20;;
84050;SDS011;74137;50.136;19.040;2024-02-21T17:18:11;42.50;;;21.70;;
84050;SDS011;74137;50.136;19.040;2024-02-21T17:20:39;41.70;;;22.10;;
84050;SDS011;74137;50.136;19.040;2024-02-21T17:23:08;41.80;;;18.50;;
84050;SDS011;74137;50.136;19.040;2024-02-21T17:25:37;40.70;;;16.60;;
84050;SDS011;74137;50.136;19.040;2024-02-21T17:28:08;50.30;;;18.30;;
84050;SDS011;74137;50.136;19.040;2024-02-21T17:30:39;33.20;;;13.50;;
84050;SDS011;74137;50.136;19.040;2024-02-21T17:33:15;26.30;;;12.10;;
84050;SDS011;74137;50.136;19.040;2024-02-21T17:35:44;28.70;;;13.00;;
84050;SDS011;74137;50.136;19.040;2024-02-21T17:38:16;23.40;;;11.20;;
84050;SDS011;74137;50.136;19.040;2024-02-21T17:40:49;26.20;;;10.90;;
84050;SDS011;74137;50.136;19.040;2024-02-21T17:43:19;15.40;;;8.50;;
84050;SDS011;74137;50.136;19.040;2024-02-21T17:45:50;17.20;;;8.40;;
84050;SDS011;74137;50.136;19.040;2024-02-21T17:48:19;14.40;;;7.80;;
84050;SDS011;74137;50.136;19.040;2024-02-21T17:50:48;18.10;;;8.90;;
84050;SDS011;74137;50.136;19.040;2024-02-21T17:53:29;16.80;;;9.00;;
84050;SDS011;74137;50.136;19.040;2024-02-21T17:56:00;18.40;;;9.30;;
84050;SDS011;74137;50.136;19.040;2024-02-21T17:58:37;18.60;;;9.40;;
84050;SDS011;74137;50.136;19.040;2024-02-21T18:01:08;16.00;;;8.90;;
84050;SDS011;74137;50.136;19.040;2024-02-21T18:03:36;15.70;;;8.70;;
84050;SDS011;74137;50.136;19.040;2024-02-21T18:06:04;16.40;;;8.80;;
84050;SDS011;74137;50.136;19.040;2024-02-21T18:08:33;17.30;;;8.50;;
84050;SDS011;74137;50.136;19.040;2024-02-21T18:11:02;18.00;;;9.50;;
84050;SDS011;74137;50.136;19.040;2024-02-21T18:13:31;18.40;;;9.80;;
84050;SDS011;74137;50.136;19.040;2024-02-21T18:16:02;19.40;;;10.10;;
84050;SDS011;74137;50.136;19.040;2024-02-21T18:18:36;19.70;;;11.20;;
84050;SDS011;74137;50.136;19.040;2024-02-21T18:21:07;19.40;;;10.70;;
84050;SDS011;74137;50.136;19.040;2024-02-21T18:23:35;18.80;;;10.50;;
84050;SDS011;74137;50.136;19.040;2024-02-21T18:26:05;20.20;;;10.70;;
84050;SDS011;74137;50.136;19.040;2024-02-21T18:28:35;25.20;;;12.20;;
84050;SDS011;74137;50.136;19.040;2024-02-21T18:31:04;18.20;;;10.30;;
84050;SDS011;74137;50.136;19.040;2024-02-21T18:33:34;19.70;;;11.20;;
84050;SDS011;74137;50.136;19.040;2024-02-21T18:36:02;20.40;;;11.40;;
84050;SDS011;74137;50.136;19.040;2024-02-21T18:38:31;22.10;;;12.10;;
84050;SDS011;74137;50.136;19.040;2024-02-21T18:41:00;19.60;;;11.20;;
84050;SDS011;74137;50.136;19.040;2024-02-21T18:43:31;24.10;;;12.00;;
84050;SDS011;74137;50.136;19.040;2024-02-21T18:45:59;19.70;;;10.40;;
84050;SDS011;74137;50.136;19.040;2024-02-21T18:48:28;22.30;;;11.60;;
84050;SDS011;74137;50.136;19.040;2024-02-21T18:50:59;20.60;;;11.60;;
84050;SDS011;74137;50.136;19.040;2024-02-21T18:53:30;21.10;;;11.20;;
84050;SDS011;74137;50.136;19.040;2024-02-21T18:56:01;22.00;;;12.10;;
84050;SDS011;74137;50.136;19.040;2024-02-21T18:58:35;23.20;;;11.80;;
84050;SDS011;74137;50.136;19.040;2024-02-21T19:01:04;23.80;;;13.00;;
84050;SDS011;74137;50.136;19.040;2024-02-21T19:03:32;21.60;;;12.10;;
84050;SDS011;74137;50.136;19.040;2024-02-21T19:06:01;21.80;;;11.20;;
84050;SDS011;74137;50.136;19.040;2024-02-21T19:10:59;23.80;;;11.80;;
84050;SDS011;74137;50.136;19.040;2024-02-21T19:13:27;20.20;;;11.50;;
84050;SDS011;74137;50.136;19.040;2024-02-21T19:15:55;19.80;;;11.10;;
84050;SDS011;74137;50.136;19.040;2024-02-21T19:18:23;22.60;;;11.70;;
84050;SDS011;74137;50.136;19.040;2024-02-21T19:20:52;21.70;;;11.70;;
84050;SDS011;74137;50.136;19.040;2024-02-21T19:23:23;19.30;;;11.10;;
84050;SDS011;74137;50.136;19.040;2024-02-21T19:25:54;26.50;;;13.10;;
84050;SDS011;74137;50.136;19.040;2024-02-21T19:28:22;21.30;;;11.60;;
84050;SDS011;74137;50.136;19.040;2024-02-21T19:30:51;27.30;;;16.50;;
84050;SDS011;74137;50.136;19.040;2024-02-21T19:33:19;36.70;;;22.20;;
84050;SDS011;74137;50.136;19.040;2024-02-21T19:35:50;38.90;;;25.30;;
84050;SDS011;74137;50.136;19.040;2024-02-21T19:38:18;44.30;;;31.30;;
84050;SDS011;74137;50.136;19.040;2024-02-21T19:40:50;39.80;;;26.60;;
84050;SDS011;74137;50.136;19.040;2024-02-21T19:43:19;30.60;;;17.10;;
84050;SDS011;74137;50.136;19.040;2024-02-21T19:45:47;29.20;;;16.40;;
84050;SDS011;74137;50.136;19.040;2024-02-21T19:48:18;28.10;;;16.30;;
84050;SDS011;74137;50.136;19.040;2024-02-21T19:50:47;23.60;;;13.10;;
84050;SDS011;74137;50.136;19.040;2024-02-21T19:53:15;26.00;;;12.10;;
84050;SDS011;74137;50.136;19.040;2024-02-21T19:55:44;19.50;;;10.40;;
84050;SDS011;74137;50.136;19.040;2024-02-21T19:58:13;20.10;;;9.20;;
84050;SDS011;74137;50.136;19.040;2024-02-21T20:00:41;16.10;;;8.20;;
84050;SDS011;74137;50.136;19.040;2024-02-21T20:03:13;19.40;;;10.20;;
84050;SDS011;74137;50.136;19.040;2024-02-21T20:05:41;18.10;;;9.70;;
84050;SDS011;74137;50.136;19.040;2024-02-21T20:08:11;21.20;;;11.10;;
84050;SDS011;74137;50.136;19.040;2024-02-21T20:10:40;19.70;;;10.80;;
84050;SDS011;74137;50.136;19.040;2024-02-21T20:13:11;21.30;;;12.80;;
84050;SDS011;74137;50.136;19.040;2024-02-21T20:15:41;22.40;;;11.70;;
84050;SDS011;74137;50.136;19.040;2024-02-21T20:18:12;21.60;;;11.90;;
84050;SDS011;74137;50.136;19.040;2024-02-21T20:20:44;19.80;;;10.80;;
84050;SDS011;74137;50.136;19.040;2024-02-21T20:23:12;19.30;;;10.10;;
84050;SDS011;74137;50.136;19.040;2024-02-21T20:25:43;18.70;;;9.60;;
84050;SDS011;74137;50.136;19.040;2024-02-21T20:28:14;18.60;;;9.00;;
84050;SDS011;74137;50.136;19.040;2024-02-21T20:30:45;17.80;;;10.70;;
84050;SDS011;74137;50.136;19.040;2024-02-21T20:33:16;22.10;;;10.80;;
84050;SDS011;74137;50.136;19.040;2024-02-21T20:35:45;17.20;;;9.80;;
84050;SDS011;74137;50.136;19.040;2024-02-21T20:38:17;16.50;;;8.90;;
84050;SDS011;74137;50.136;19.040;2024-02-21T20:40:45;18.80;;;11.30;;
84050;SDS011;74137;50.136;19.040;2024-02-21T20:43:13;19.30;;;10.60;;
84050;SDS011;74137;50.136;19.040;2024-02-21T20:45:42;21.50;;;10.90;;
84050;SDS011;74137;50.136;19.040;2024-02-21T20:48:10;22.50;;;11.80;;
84050;SDS011;74137;50.136;19.040;2024-02-21T20:50:38;17.40;;;9.70;;
84050;SDS011;74137;50.136;19.040;2024-02-21T20:53:07;21.10;;;11.30;;
84050;SDS011;74137;50.136;19.040;2024-02-21T20:55:36;26.60;;;12.80;;
84050;SDS011;74137;50.136;19.040;2024-02-21T20:58:06;21.30;;;11.60;;
84050;SDS011;74137;50.136;19.040;2024-02-21T21:00:35;22.60;;;13.10;;
84050;SDS011;74137;50.136;19.040;2024-02-21T21:03:05;24.90;;;13.20;;
84050;SDS011;74137;50.136;19.040;2024-02-21T21:05:34;23.10;;;13.90;;
84050;SDS011;74137;50.136;19.040;2024-02-21T21:08:03;26.20;;;14.90;;
84050;SDS011;74137;50.136;19.040;2024-02-21T21:10:32;33.40;;;18.70;;
84050;SDS011;74137;50.136;19.040;2024-02-21T21:13:02;32.70;;;18.80;;
84050;SDS011;74137;50.136;19.040;2024-02-21T21:15:35;31.00;;;19.00;;
84050;SDS011;74137;50.136;19.040;2024-02-21T21:18:05;28.00;;;16.30;;
84050;SDS011;74137;50.136;19.040;2024-02-21T21:20:37;27.50;;;16.40;;
84050;SDS011;74137;50.136;19.040;2024-02-21T21:23:07;26.20;;;16.30;;
84050;SDS011;74137;50.136;19.040;2024-02-21T21:25:40;27.40;;;16.60;;
84050;SDS011;74137;50.136;19.040;2024-02-21T21:28:08;26.20;;;16.30;;
84050;SDS011;74137;50.136;19.040;2024-02-21T21:30:37;26.30;;;16.80;;
84050;SDS011;74137;50.136;19.040;2024-02-21T21:33:05;20.20;;;12.20;;
84050;SDS011;74137;50.136;19.040;2024-02-21T21:35:36;25.40;;;13.80;;
84050;SDS011;74137;50.136;19.040;2024-02-21T21:38:07;21.50;;;12.30;;
84050;SDS011;74137;50.136;19.040;2024-02-21T21:40:35;20.30;;;10.70;;
84050;SDS011;74137;50.136;19.040;2024-02-21T21:43:04;19.80;;;12.20;;
84050;SDS011;74137;50.136;19.040;2024-02-21T21:45:32;22.50;;;12.80;;
84050;SDS011;74137;50.136;19.040;2024-02-21T21:48:01;21.80;;;12.80;;
84050;SDS011;74137;50.136;19.040;2024-02-21T21:50:30;23.90;;;13.10;;
84050;SDS011;74137;50.136;19.040;2024-02-21T21:52:59;23.00;;;13.00;;
84050;SDS011;74137;50.136;19.040;2024-02-21T21:55:30;22.10;;;12.70;;
84050;SDS011;74137;50.136;19.040;2024-02-21T21:57:59;19.90;;;12.10;;
84050;SDS011;74137;50.136;19.040;2024-02-21T22:00:28;20.20;;;12.30;;
84050;SDS011;74137;50.136;19.040;2024-02-21T22:02:58;25.00;;;13.20;;
84050;SDS011;74137;50.136;19.040;2024-02-21T22:05:27;25.00;;;13.40;;
84050;SDS011;74137;50.136;19.040;2024-02-21T22:07:55;24.80;;;14.90;;
84050;SDS011;74137;50.136;19.040;2024-02-21T22:10:25;20.70;;;12.60;;
84050;SDS011;74137;50.136;19.040;2024-02-21T22:12:56;22.90;;;14.50;;
84050;SDS011;74137;50.136;19.040;2024-02-21T22:15:24;25.30;;;14.20;;
84050;SDS011;74137;50.136;19.040;2024-02-21T22:17:52;25.30;;;13.60;;
84050;SDS011;74137;50.136;19.040;2024-02-21T22:20:21;23.50;;;13.00;;
84050;SDS011;74137;50.136;19.040;2024-02-21T22:22:53;21.80;;;13.40;;
84050;SDS011;74137;50.136;19.040;2024-02-21T22:25:21;19.00;;;10.80;;
84050;SDS011;74137;50.136;19.040;2024-02-21T22:27:50;18.20;;;10.30;;
84050;SDS011;74137;50.136;19.040;2024-02-21T22:30:18;14.10;;;8.40;;
84050;SDS011;74137;50.136;19.040;2024-02-21T22:32:47;15.60;;;10.70;;
84050;SDS011;74137;50.136;19.040;2024-02-21T22:35:16;18.80;;;11.50;;
84050;SDS011;74137;50.136;19.040;2024-02-21T22:37:45;23.40;;;12.20;;
84050;SDS011;74137;50.136;19.040;2024-02-21T22:40:13;22.20;;;12.70;;
84050;SDS011;74137;50.136;19.040;2024-02-21T22:42:41;21.80;;;11.70;;
84050;SDS011;74137;50.136;19.040;2024-02-21T22:45:11;19.80;;;11.40;;
84050;SDS011;74137;50.136;19.040;2024-02-21T22:47:39;24.10;;;13.70;;
84050;SDS011;74137;50.136;19.040;2024-02-21T22:50:08;23.10;;;11.40;;
84050;SDS011;74137;50.136;19.040;2024-02-21T22:52:36;20.10;;;10.90;;
84050;SDS011;74137;50.136;19.040;2024-02-21T22:55:05;19.60;;;11.60;;
84050;SDS011;74137;50.136;19.040;2024-02-21T22:57:34;18.00;;;10.50;;
84050;SDS011;74137;50.136;19.040;2024-02-21T23:00:05;23.20;;;12.00;;
84050;SDS011;74137;50.136;19.040;2024-02-21T23:02:36;21.60;;;10.20;;
84050;SDS011;74137;50.136;19.040;2024-02-21T23:05:07;16.90;;;9.30;;
84050;SDS011;74137;50.136;19.040;2024-02-21T23:07:37;25.60;;;12.30;;
84050;SDS011;74137;50.136;19.040;2024-02-21T23:10:05;23.00;;;13.20;;
84050;SDS011;74137;50.136;19.040;2024-02-21T23:12:34;24.20;;;12.70;;
84050;SDS011;74137;50.136;19.040;2024-02-21T23:15:04;20.20;;;11.90;;
84050;SDS011;74137;50.136;19.040;2024-02-21T23:17:33;20.00;;;11.50;;
84050;SDS011;74137;50.136;19.040;2024-02-21T23:20:02;22.50;;;11.90;;
84050;SDS011;74137;50.136;19.040;2024-02-21T23:22:35;22.10;;;11.20;;
84050;SDS011;74137;50.136;19.040;2024-02-21T23:25:04;20.00;;;10.60;;
84050;SDS011;74137;50.136;19.040;2024-02-21T23:27:32;20.80;;;10.80;;
84050;SDS011;74137;50.136;19.040;2024-02-21T23:30:01;14.70;;;8.40;;
84050;SDS011;74137;50.136;19.040;2024-02-21T23:32:32;20.70;;;11.50;;
84050;SDS011;74137;50.136;19.040;2024-02-21T23:35:01;22.10;;;10.80;;
84050;SDS011;74137;50.136;19.040;2024-02-21T23:37:32;18.80;;;9.90;;
84050;SDS011;74137;50.136;19.040;2024-02-21T23:40:01;17.60;;;10.90;;
84050;SDS011;74137;50.136;19.040;2024-02-21T23:42:32;21.60;;;11.40;;
84050;SDS011;74137;50.136;19.040;2024-02-21T23:45:01;21.40;;;11.60;;
84050;SDS011;74137;50.136;19.040;2024-02-21T23:47:31;18.20;;;10.80;;
84050;SDS011;74137;50.136;19.040;2024-02-21T23:50:00;21.70;;;12.00;;
84050;SDS011;74137;50.136;19.040;2024-02-21T23:52:28;18.50;;;9.50;;
84050;SDS011;74137;50.136;19.040;2024-02-21T23:54:57;20.50;;;10.80;;
84050;SDS011;74137;50.136;19.040;2024-02-21T23:57:26;20.40;;;11.70;;
84050;SDS011;74137;50.136;19.040;2024-02-21T23:59:54;21.30;;;11.30;;
